sensor_id;sensor_type;location;lat;lon;timestamp;P1;durP1;ratioP1;P2;durP2;ratioP2
53890;SDS011;41337;51.400;-2.342;2022-07-29T00:00:44;2.38;;;1.30;;
53890;SDS011;41337;51.400;-2.342;2022-07-29T00:05:45;1.70;;;1.30;;
53890;SDS011;41337;51.400;-2.342;2022-07-29T00:10:46;1.95;;;1.60;;
53890;SDS011;41337;51.400;-2.342;2022-07-29T00:16:12;3.70;;;1.80;;
53890;SDS011;41337;51.400;-2.342;2022-07-29T00:21:13;2.75;;;1.45;;
53890;SDS011;41337;51.400;-2.342;2022-07-29T00:26:14;2.10;;;1.90;;
53890;SDS011;41337;51.400;-2.342;2022-07-29T00:31:14;3.05;;;1.70;;
53890;SDS011;41337;51.400;-2.342;2022-07-29T00:36:15;2.13;;;1.80;;
53890;SDS011;41337;51.400;-2.342;2022-07-29T00:41:19;1.45;;;1.35;;
53890;SDS011;41337;51.400;-2.342;2022-07-29T00:46:22;2.03;;;1.70;;
53890;SDS011;41337;51.400;-2.342;2022-07-29T00:51:24;1.83;;;1.73;;
53890;SDS011;41337;51.400;-2.342;2022-07-29T00:56:33;2.28;;;2.08;;
53890;SDS011;41337;51.400;-2.342;2022-07-29T01:01:34;1.65;;;1.50;;
53890;SDS011;41337;51.400;-2.342;2022-07-29T01:06:35;5.10;;;1.95;;
53890;SDS011;41337;51.400;-2.342;2022-07-29T01:11:36;2.13;;;2.00;;
53890;SDS011;41337;51.400;-2.342;2022-07-29T01:16:51;2.33;;;2.10;;
53890;SDS011;41337;51.400;-2.342;2022-07-29T01:22:05;2.20;;;2.03;;
53890;SDS011;41337;51.400;-2.342;2022-07-29T01:32:46;1.90;;;1.77;;
53890;SDS011;41337;51.400;-2.342;2022-07-29T01:43:19;3.03;;;2.03;;
53890;SDS011;41337;51.400;-2.342;2022-07-29T01:48:30;1.80;;;1.70;;
53890;SDS011;41337;51.400;-2.342;2022-07-29T01:53:45;1.70;;;1.60;;
53890;SDS011;41337;51.400;-2.342;2022-07-29T01:59:23;2.38;;;1.92;;
53890;SDS011;41337;51.400;-2.342;2022-07-29T02:04:28;3.28;;;2.20;;
53890;SDS011;41337;51.400;-2.342;2022-07-29T02:09:32;3.55;;;2.00;;
53890;SDS011;41337;51.400;-2.342;2022-07-29T02:14:50;2.75;;;2.10;;
53890;SDS011;41337;51.400;-2.342;2022-07-29T02:19:54;1.92;;;1.83;;
53890;SDS011;41337;51.400;-2.342;2022-07-29T02:25:00;2.97;;;2.60;;
53890;SDS011;41337;51.400;-2.342;2022-07-29T02:30:02;2.83;;;2.63;;
53890;SDS011;41337;51.400;-2.342;2022-07-29T02:35:08;2.58;;;2.00;;
53890;SDS011;41337;51.400;-2.342;2022-07-29T02:40:11;2.70;;;2.50;;
53890;SDS011;41337;51.400;-2.342;2022-07-29T02:45:17;2.20;;;2.00;;
53890;SDS011;41337;51.400;-2.342;2022-07-29T02:50:23;2.70;;;2.50;;
53890;SDS011;41337;51.400;-2.342;2022-07-29T02:55:36;3.45;;;2.80;;
53890;SDS011;41337;51.400;-2.342;2022-07-29T03:00:40;2.80;;;2.60;;
53890;SDS011;41337;51.400;-2.342;2022-07-29T03:05:43;2.47;;;2.25;;
53890;SDS011;41337;51.400;-2.342;2022-07-29T03:10:47;2.80;;;2.60;;
53890;SDS011;41337;51.400;-2.342;2022-07-29T03:15:48;3.13;;;2.92;;
53890;SDS011;41337;51.400;-2.342;2022-07-29T03:20:50;3.35;;;3.10;;
53890;SDS011;41337;51.400;-2.342;2022-07-29T03:25:51;3.55;;;2.90;;
53890;SDS011;41337;51.400;-2.342;2022-07-29T03:30:53;3.45;;;3.25;;
53890;SDS011;41337;51.400;-2.342;2022-07-29T03:36:03;3.00;;;2.80;;
53890;SDS011;41337;51.400;-2.342;2022-07-29T03:41:09;3.30;;;3.00;;
53890;SDS011;41337;51.400;-2.342;2022-07-29T03:46:11;3.47;;;3.10;;
53890;SDS011;41337;51.400;-2.342;2022-07-29T03:51:17;4.78;;;3.38;;
53890;SDS011;41337;51.400;-2.342;2022-07-29T03:56:20;3.22;;;2.70;;
53890;SDS011;41337;51.400;-2.342;2022-07-29T04:01:22;3.70;;;3.42;;
53890;SDS011;41337;51.400;-2.342;2022-07-29T04:06:48;4.00;;;3.63;;
53890;SDS011;41337;51.400;-2.342;2022-07-29T04:11:49;3.90;;;3.55;;
53890;SDS011;41337;51.400;-2.342;2022-07-29T04:16:50;4.57;;;3.78;;
53890;SDS011;41337;51.400;-2.342;2022-07-29T04:21:53;6.32;;;3.88;;
53890;SDS011;41337;51.400;-2.342;2022-07-29T04:26:58;5.68;;;4.20;;
53890;SDS011;41337;51.400;-2.342;2022-07-29T04:31:59;4.03;;;3.58;;
53890;SDS011;41337;51.400;-2.342;2022-07-29T04:37:00;4.07;;;3.63;;
53890;SDS011;41337;51.400;-2.342;2022-07-29T04:42:00;4.18;;;3.78;;
53890;SDS011;41337;51.400;-2.342;2022-07-29T04:47:01;3.92;;;3.45;;
53890;SDS011;41337;51.400;-2.342;2022-07-29T04:52:02;5.13;;;3.38;;
53890;SDS011;41337;51.400;-2.342;2022-07-29T04:57:04;6.28;;;3.80;;
53890;SDS011;41337;51.400;-2.342;2022-07-29T05:02:04;3.83;;;3.35;;
53890;SDS011;41337;51.400;-2.342;2022-07-29T05:07:05;3.72;;;3.42;;
53890;SDS011;41337;51.400;-2.342;2022-07-29T05:12:06;3.70;;;3.38;;
53890;SDS011;41337;51.400;-2.342;2022-07-29T05:17:14;3.70;;;3.50;;
53890;SDS011;41337;51.400;-2.342;2022-07-29T05:22:15;4.60;;;3.28;;
53890;SDS011;41337;51.400;-2.342;2022-07-29T05:27:15;5.15;;;3.22;;
53890;SDS011;41337;51.400;-2.342;2022-07-29T05:32:16;3.42;;;3.15;;
53890;SDS011;41337;51.400;-2.342;2022-07-29T05:37:18;4.97;;;3.30;;
53890;SDS011;41337;51.400;-2.342;2022-07-29T05:42:24;3.08;;;2.78;;
53890;SDS011;41337;51.400;-2.342;2022-07-29T05:47:26;5.18;;;3.30;;
53890;SDS011;41337;51.400;-2.342;2022-07-29T05:52:27;3.35;;;3.05;;
53890;SDS011;41337;51.400;-2.342;2022-07-29T05:57:28;4.13;;;3.72;;
53890;SDS011;41337;51.400;-2.342;2022-07-29T06:02:29;5.13;;;3.33;;
53890;SDS011;41337;51.400;-2.342;2022-07-29T06:07:30;3.40;;;3.20;;
53890;SDS011;41337;51.400;-2.342;2022-07-29T06:12:35;6.28;;;3.38;;
53890;SDS011;41337;51.400;-2.342;2022-07-29T06:17:36;6.53;;;3.88;;
53890;SDS011;41337;51.400;-2.342;2022-07-29T06:22:37;5.97;;;3.70;;
53890;SDS011;41337;51.400;-2.342;2022-07-29T06:27:38;3.85;;;3.22;;
53890;SDS011;41337;51.400;-2.342;2022-07-29T06:32:38;3.55;;;3.00;;
53890;SDS011;41337;51.400;-2.342;2022-07-29T06:37:39;5.65;;;3.42;;
53890;SDS011;41337;51.400;-2.342;2022-07-29T06:42:43;5.53;;;3.10;;
53890;SDS011;41337;51.400;-2.342;2022-07-29T06:47:47;5.10;;;3.47;;
53890;SDS011;41337;51.400;-2.342;2022-07-29T06:52:49;7.78;;;3.90;;
53890;SDS011;41337;51.400;-2.342;2022-07-29T06:57:50;8.13;;;3.92;;
53890;SDS011;41337;51.400;-2.342;2022-07-29T07:02:51;5.65;;;3.85;;
53890;SDS011;41337;51.400;-2.342;2022-07-29T07:07:52;9.50;;;4.68;;
53890;SDS011;41337;51.400;-2.342;2022-07-29T07:12:53;6.25;;;4.10;;
53890;SDS011;41337;51.400;-2.342;2022-07-29T07:17:53;6.57;;;4.20;;
53890;SDS011;41337;51.400;-2.342;2022-07-29T07:22:54;4.03;;;2.92;;
53890;SDS011;41337;51.400;-2.342;2022-07-29T07:27:55;4.97;;;3.20;;
53890;SDS011;41337;51.400;-2.342;2022-07-29T07:32:56;4.65;;;3.30;;
53890;SDS011;41337;51.400;-2.342;2022-07-29T07:37:57;4.95;;;2.88;;
53890;SDS011;41337;51.400;-2.342;2022-07-29T07:42:58;5.68;;;2.65;;
53890;SDS011;41337;51.400;-2.342;2022-07-29T07:48:03;7.13;;;2.63;;
53890;SDS011;41337;51.400;-2.342;2022-07-29T07:53:04;5.50;;;2.47;;
53890;SDS011;41337;51.400;-2.342;2022-07-29T07:58:05;6.95;;;2.40;;
53890;SDS011;41337;51.400;-2.342;2022-07-29T08:03:05;2.92;;;1.80;;
53890;SDS011;41337;51.400;-2.342;2022-07-29T08:08:06;3.83;;;2.35;;
53890;SDS011;41337;51.400;-2.342;2022-07-29T08:13:08;4.35;;;2.47;;
53890;SDS011;41337;51.400;-2.342;2022-07-29T08:18:13;4.30;;;2.40;;
53890;SDS011;41337;51.400;-2.342;2022-07-29T08:23:17;3.05;;;2.30;;
53890;SDS011;41337;51.400;-2.342;2022-07-29T08:28:25;3.47;;;2.00;;
53890;SDS011;41337;51.400;-2.342;2022-07-29T08:33:26;7.50;;;3.28;;
53890;SDS011;41337;51.400;-2.342;2022-07-29T08:38:26;2.92;;;2.10;;
53890;SDS011;41337;51.400;-2.342;2022-07-29T08:43:27;3.40;;;1.95;;
53890;SDS011;41337;51.400;-2.342;2022-07-29T08:48:29;5.10;;;1.98;;
53890;SDS011;41337;51.400;-2.342;2022-07-29T08:53:29;3.40;;;1.70;;
53890;SDS011;41337;51.400;-2.342;2022-07-29T08:58:32;5.38;;;1.80;;
53890;SDS011;41337;51.400;-2.342;2022-07-29T09:03:34;1.85;;;1.40;;
53890;SDS011;41337;51.400;-2.342;2022-07-29T09:08:40;3.50;;;2.00;;
53890;SDS011;41337;51.400;-2.342;2022-07-29T09:13:41;1.90;;;1.65;;
53890;SDS011;41337;51.400;-2.342;2022-07-29T09:18:43;3.25;;;1.80;;
53890;SDS011;41337;51.400;-2.342;2022-07-29T09:29:14;2.90;;;1.45;;
53890;SDS011;41337;51.400;-2.342;2022-07-29T09:34:23;4.40;;;1.48;;
53890;SDS011;41337;51.400;-2.342;2022-07-29T09:39:38;2.63;;;1.40;;
53890;SDS011;41337;51.400;-2.342;2022-07-29T09:44:49;3.38;;;1.13;;
53890;SDS011;41337;51.400;-2.342;2022-07-29T09:49:52;1.27;;;0.80;;
53890;SDS011;41337;51.400;-2.342;2022-07-29T09:55:06;3.45;;;1.20;;
53890;SDS011;41337;51.400;-2.342;2022-07-29T10:00:10;5.00;;;1.90;;
53890;SDS011;41337;51.400;-2.342;2022-07-29T10:05:24;4.95;;;1.20;;
53890;SDS011;41337;51.400;-2.342;2022-07-29T10:10:35;2.15;;;1.27;;
53890;SDS011;41337;51.400;-2.342;2022-07-29T10:15:44;3.35;;;1.33;;
53890;SDS011;41337;51.400;-2.342;2022-07-29T10:20:46;4.70;;;1.77;;
53890;SDS011;41337;51.400;-2.342;2022-07-29T10:25:52;5.70;;;1.27;;
53890;SDS011;41337;51.400;-2.342;2022-07-29T10:30:58;3.00;;;1.20;;
53890;SDS011;41337;51.400;-2.342;2022-07-29T10:36:04;2.97;;;1.30;;
53890;SDS011;41337;51.400;-2.342;2022-07-29T10:46:27;6.23;;;1.30;;
53890;SDS011;41337;51.400;-2.342;2022-07-29T10:56:50;2.17;;;1.52;;
53890;SDS011;41337;51.400;-2.342;2022-07-29T11:01:52;3.45;;;1.38;;
53890;SDS011;41337;51.400;-2.342;2022-07-29T11:12:01;2.43;;;1.30;;
53890;SDS011;41337;51.400;-2.342;2022-07-29T11:17:03;2.22;;;0.90;;
53890;SDS011;41337;51.400;-2.342;2022-07-29T11:22:09;1.92;;;0.90;;
53890;SDS011;41337;51.400;-2.342;2022-07-29T11:27:15;3.40;;;0.95;;
53890;SDS011;41337;51.400;-2.342;2022-07-29T11:32:23;7.45;;;1.00;;
53890;SDS011;41337;51.400;-2.342;2022-07-29T11:37:41;2.47;;;1.27;;
53890;SDS011;41337;51.400;-2.342;2022-07-29T11:42:42;2.47;;;1.00;;
53890;SDS011;41337;51.400;-2.342;2022-07-29T11:47:49;1.90;;;0.68;;
53890;SDS011;41337;51.400;-2.342;2022-07-29T11:53:00;3.90;;;0.80;;
53890;SDS011;41337;51.400;-2.342;2022-07-29T11:58:05;5.00;;;1.20;;
53890;SDS011;41337;51.400;-2.342;2022-07-29T12:03:07;3.67;;;0.90;;
53890;SDS011;41337;51.400;-2.342;2022-07-29T12:08:11;1.40;;;0.70;;
53890;SDS011;41337;51.400;-2.342;2022-07-29T12:13:13;2.20;;;1.08;;
53890;SDS011;41337;51.400;-2.342;2022-07-29T12:18:19;3.40;;;0.90;;
53890;SDS011;41337;51.400;-2.342;2022-07-29T12:23:20;0.85;;;0.57;;
53890;SDS011;41337;51.400;-2.342;2022-07-29T12:28:21;3.92;;;0.88;;
53890;SDS011;41337;51.400;-2.342;2022-07-29T12:38:30;1.80;;;0.73;;
53890;SDS011;41337;51.400;-2.342;2022-07-29T12:43:32;0.95;;;0.55;;
53890;SDS011;41337;51.400;-2.342;2022-07-29T12:48:39;0.70;;;0.40;;
53890;SDS011;41337;51.400;-2.342;2022-07-29T12:54:00;1.33;;;0.55;;
53890;SDS011;41337;51.400;-2.342;2022-07-29T12:59:33;1.23;;;0.43;;
53890;SDS011;41337;51.400;-2.342;2022-07-29T13:04:34;2.20;;;0.43;;
53890;SDS011;41337;51.400;-2.342;2022-07-29T13:09:45;2.83;;;0.77;;
53890;SDS011;41337;51.400;-2.342;2022-07-29T13:14:47;2.38;;;0.50;;
53890;SDS011;41337;51.400;-2.342;2022-07-29T13:20:08;2.05;;;0.40;;
53890;SDS011;41337;51.400;-2.342;2022-07-29T13:25:14;0.88;;;0.40;;
53890;SDS011;41337;51.400;-2.342;2022-07-29T13:30:33;2.40;;;0.73;;
53890;SDS011;41337;51.400;-2.342;2022-07-29T13:35:33;4.57;;;1.13;;
53890;SDS011;41337;51.400;-2.342;2022-07-29T13:40:35;1.80;;;0.50;;
53890;SDS011;41337;51.400;-2.342;2022-07-29T13:45:42;1.85;;;0.60;;
53890;SDS011;41337;51.400;-2.342;2022-07-29T13:50:43;1.75;;;0.50;;
53890;SDS011;41337;51.400;-2.342;2022-07-29T13:55:44;1.60;;;0.80;;
53890;SDS011;41337;51.400;-2.342;2022-07-29T14:00:45;1.65;;;0.60;;
53890;SDS011;41337;51.400;-2.342;2022-07-29T14:05:46;1.75;;;0.60;;
53890;SDS011;41337;51.400;-2.342;2022-07-29T14:10:54;1.08;;;0.50;;
53890;SDS011;41337;51.400;-2.342;2022-07-29T14:15:54;2.88;;;0.65;;
53890;SDS011;41337;51.400;-2.342;2022-07-29T14:20:56;2.38;;;0.80;;
53890;SDS011;41337;51.400;-2.342;2022-07-29T14:25:57;4.45;;;0.65;;
53890;SDS011;41337;51.400;-2.342;2022-07-29T14:30:58;2.60;;;0.60;;
53890;SDS011;41337;51.400;-2.342;2022-07-29T14:36:03;0.93;;;0.40;;
53890;SDS011;41337;51.400;-2.342;2022-07-29T14:41:04;1.00;;;0.50;;
53890;SDS011;41337;51.400;-2.342;2022-07-29T14:46:06;2.05;;;0.60;;
53890;SDS011;41337;51.400;-2.342;2022-07-29T14:51:07;1.75;;;0.60;;
53890;SDS011;41337;51.400;-2.342;2022-07-29T14:56:10;2.88;;;0.50;;
53890;SDS011;41337;51.400;-2.342;2022-07-29T15:01:17;2.88;;;0.65;;
53890;SDS011;41337;51.400;-2.342;2022-07-29T15:06:18;1.20;;;0.70;;
53890;SDS011;41337;51.400;-2.342;2022-07-29T15:11:19;4.05;;;0.70;;
53890;SDS011;41337;51.400;-2.342;2022-07-29T15:16:20;2.28;;;0.60;;
53890;SDS011;41337;51.400;-2.342;2022-07-29T15:21:21;3.70;;;0.60;;
53890;SDS011;41337;51.400;-2.342;2022-07-29T15:26:26;1.67;;;0.60;;
53890;SDS011;41337;51.400;-2.342;2022-07-29T15:31:27;2.10;;;0.70;;
53890;SDS011;41337;51.400;-2.342;2022-07-29T15:36:28;0.80;;;0.40;;
53890;SDS011;41337;51.400;-2.342;2022-07-29T15:41:28;1.38;;;0.50;;
53890;SDS011;41337;51.400;-2.342;2022-07-29T15:46:29;1.00;;;0.60;;
53890;SDS011;41337;51.400;-2.342;2022-07-29T15:51:49;2.10;;;0.65;;
53890;SDS011;41337;51.400;-2.342;2022-07-29T15:56:49;1.75;;;0.63;;
53890;SDS011;41337;51.400;-2.342;2022-07-29T16:01:50;1.15;;;0.60;;
53890;SDS011;41337;51.400;-2.342;2022-07-29T16:06:53;1.67;;;0.70;;
53890;SDS011;41337;51.400;-2.342;2022-07-29T16:12:00;1.75;;;0.77;;
53890;SDS011;41337;51.400;-2.342;2022-07-29T16:17:01;1.55;;;0.43;;
53890;SDS011;41337;51.400;-2.342;2022-07-29T16:22:02;3.22;;;0.90;;
53890;SDS011;41337;51.400;-2.342;2022-07-29T16:27:03;1.48;;;0.90;;
53890;SDS011;41337;51.400;-2.342;2022-07-29T16:32:04;1.60;;;0.90;;
53890;SDS011;41337;51.400;-2.342;2022-07-29T16:37:05;3.05;;;1.08;;
53890;SDS011;41337;51.400;-2.342;2022-07-29T16:42:07;1.60;;;0.80;;
53890;SDS011;41337;51.400;-2.342;2022-07-29T16:47:08;2.45;;;0.73;;
53890;SDS011;41337;51.400;-2.342;2022-07-29T16:52:12;1.95;;;1.08;;
53890;SDS011;41337;51.400;-2.342;2022-07-29T16:57:13;4.75;;;1.10;;
53890;SDS011;41337;51.400;-2.342;2022-07-29T17:02:14;4.13;;;1.08;;
53890;SDS011;41337;51.400;-2.342;2022-07-29T17:07:14;1.92;;;0.80;;
53890;SDS011;41337;51.400;-2.342;2022-07-29T17:12:15;2.67;;;1.17;;
53890;SDS011;41337;51.400;-2.342;2022-07-29T17:17:16;1.15;;;0.77;;
53890;SDS011;41337;51.400;-2.342;2022-07-29T17:22:17;2.65;;;0.98;;
53890;SDS011;41337;51.400;-2.342;2022-07-29T17:27:19;2.63;;;0.80;;
53890;SDS011;41337;51.400;-2.342;2022-07-29T17:32:19;2.20;;;0.80;;
53890;SDS011;41337;51.400;-2.342;2022-07-29T17:37:27;2.15;;;1.27;;
53890;SDS011;41337;51.400;-2.342;2022-07-29T17:42:28;1.27;;;0.82;;
53890;SDS011;41337;51.400;-2.342;2022-07-29T17:47:29;2.10;;;0.90;;
53890;SDS011;41337;51.400;-2.342;2022-07-29T17:52:30;2.35;;;0.88;;
53890;SDS011;41337;51.400;-2.342;2022-07-29T18:02:55;4.47;;;1.00;;
53890;SDS011;41337;51.400;-2.342;2022-07-29T18:07:55;2.15;;;0.77;;
53890;SDS011;41337;51.400;-2.342;2022-07-29T18:12:57;5.07;;;1.20;;
53890;SDS011;41337;51.400;-2.342;2022-07-29T18:17:57;3.08;;;1.00;;
53890;SDS011;41337;51.400;-2.342;2022-07-29T18:22:58;1.98;;;1.10;;
53890;SDS011;41337;51.400;-2.342;2022-07-29T18:28:00;2.30;;;1.05;;
53890;SDS011;41337;51.400;-2.342;2022-07-29T18:33:01;3.67;;;1.70;;
53890;SDS011;41337;51.400;-2.342;2022-07-29T18:38:09;3.85;;;1.30;;
53890;SDS011;41337;51.400;-2.342;2022-07-29T18:43:10;3.83;;;1.25;;
53890;SDS011;41337;51.400;-2.342;2022-07-29T18:48:12;2.92;;;0.82;;
53890;SDS011;41337;51.400;-2.342;2022-07-29T18:53:12;4.28;;;1.17;;
53890;SDS011;41337;51.400;-2.342;2022-07-29T18:58:17;4.32;;;1.00;;
53890;SDS011;41337;51.400;-2.342;2022-07-29T19:03:18;2.25;;;0.70;;
53890;SDS011;41337;51.400;-2.342;2022-07-29T19:08:19;4.53;;;0.70;;
53890;SDS011;41337;51.400;-2.342;2022-07-29T19:13:19;1.38;;;0.80;;
53890;SDS011;41337;51.400;-2.342;2022-07-29T19:18:20;2.35;;;0.93;;
53890;SDS011;41337;51.400;-2.342;2022-07-29T19:23:21;3.40;;;1.00;;
53890;SDS011;41337;51.400;-2.342;2022-07-29T19:28:22;3.30;;;1.45;;
53890;SDS011;41337;51.400;-2.342;2022-07-29T19:33:23;3.22;;;1.63;;
53890;SDS011;41337;51.400;-2.342;2022-07-29T19:38:24;3.40;;;1.27;;
53890;SDS011;41337;51.400;-2.342;2022-07-29T19:43:25;6.28;;;1.60;;
53890;SDS011;41337;51.400;-2.342;2022-07-29T19:48:26;4.65;;;1.38;;
53890;SDS011;41337;51.400;-2.342;2022-07-29T19:53:26;6.18;;;1.17;;
53890;SDS011;41337;51.400;-2.342;2022-07-29T19:58:27;3.67;;;1.35;;
53890;SDS011;41337;51.400;-2.342;2022-07-29T20:03:31;2.22;;;1.55;;
53890;SDS011;41337;51.400;-2.342;2022-07-29T20:08:35;2.85;;;1.40;;
53890;SDS011;41337;51.400;-2.342;2022-07-29T20:13:36;4.15;;;1.35;;
53890;SDS011;41337;51.400;-2.342;2022-07-29T20:18:37;5.80;;;1.65;;
53890;SDS011;41337;51.400;-2.342;2022-07-29T20:23:38;6.88;;;1.60;;
53890;SDS011;41337;51.400;-2.342;2022-07-29T20:28:38;3.20;;;2.05;;
53890;SDS011;41337;51.400;-2.342;2022-07-29T20:33:39;3.22;;;1.52;;
53890;SDS011;41337;51.400;-2.342;2022-07-29T20:38:40;4.68;;;1.80;;
53890;SDS011;41337;51.400;-2.342;2022-07-29T20:43:41;4.45;;;1.70;;
53890;SDS011;41337;51.400;-2.342;2022-07-29T20:48:43;6.38;;;1.50;;
53890;SDS011;41337;51.400;-2.342;2022-07-29T20:53:44;3.22;;;1.90;;
53890;SDS011;41337;51.400;-2.342;2022-07-29T20:58:49;2.28;;;1.30;;
53890;SDS011;41337;51.400;-2.342;2022-07-29T21:03:50;2.97;;;1.90;;
53890;SDS011;41337;51.400;-2.342;2022-07-29T21:08:51;3.35;;;1.73;;
53890;SDS011;41337;51.400;-2.342;2022-07-29T21:13:53;6.38;;;1.90;;
53890;SDS011;41337;51.400;-2.342;2022-07-29T21:18:54;4.20;;;1.98;;
53890;SDS011;41337;51.400;-2.342;2022-07-29T21:23:55;3.60;;;1.70;;
53890;SDS011;41337;51.400;-2.342;2022-07-29T21:28:56;3.90;;;1.55;;
53890;SDS011;41337;51.400;-2.342;2022-07-29T21:33:57;5.07;;;1.90;;
53890;SDS011;41337;51.400;-2.342;2022-07-29T21:38:58;2.60;;;1.85;;
53890;SDS011;41337;51.400;-2.342;2022-07-29T21:44:06;2.25;;;1.90;;
53890;SDS011;41337;51.400;-2.342;2022-07-29T21:49:06;3.25;;;2.00;;
53890;SDS011;41337;51.400;-2.342;2022-07-29T21:54:14;8.07;;;2.20;;
53890;SDS011;41337;51.400;-2.342;2022-07-29T21:59:14;3.38;;;1.80;;
53890;SDS011;41337;51.400;-2.342;2022-07-29T22:04:15;4.82;;;1.85;;
53890;SDS011;41337;51.400;-2.342;2022-07-29T22:09:16;6.38;;;2.22;;
53890;SDS011;41337;51.400;-2.342;2022-07-29T22:14:17;7.53;;;1.90;;
53890;SDS011;41337;51.400;-2.342;2022-07-29T22:19:21;4.05;;;2.60;;
53890;SDS011;41337;51.400;-2.342;2022-07-29T22:24:22;3.53;;;1.83;;
53890;SDS011;41337;51.400;-2.342;2022-07-29T22:29:23;2.50;;;1.90;;
53890;SDS011;41337;51.400;-2.342;2022-07-29T22:34:25;5.15;;;2.20;;
53890;SDS011;41337;51.400;-2.342;2022-07-29T22:39:26;4.97;;;2.22;;
53890;SDS011;41337;51.400;-2.342;2022-07-29T22:44:27;4.47;;;2.10;;
53890;SDS011;41337;51.400;-2.342;2022-07-29T22:49:29;6.18;;;2.45;;
53890;SDS011;41337;51.400;-2.342;2022-07-29T22:54:33;2.95;;;2.13;;
53890;SDS011;41337;51.400;-2.342;2022-07-29T22:59:33;4.13;;;2.40;;
53890;SDS011;41337;51.400;-2.342;2022-07-29T23:04:34;4.53;;;2.20;;
53890;SDS011;41337;51.400;-2.342;2022-07-29T23:09:35;2.40;;;2.10;;
53890;SDS011;41337;51.400;-2.342;2022-07-29T23:14:36;2.65;;;1.98;;
53890;SDS011;41337;51.400;-2.342;2022-07-29T23:19:37;3.97;;;1.80;;
53890;SDS011;41337;51.400;-2.342;2022-07-29T23:24:37;2.58;;;1.70;;
53890;SDS011;41337;51.400;-2.342;2022-07-29T23:29:38;5.07;;;1.98;;
53890;SDS011;41337;51.400;-2.342;2022-07-29T23:34:45;3.80;;;1.90;;
53890;SDS011;41337;51.400;-2.342;2022-07-29T23:39:46;4.57;;;2.17;;
53890;SDS011;41337;51.400;-2.342;2022-07-29T23:44:47;3.15;;;1.60;;
53890;SDS011;41337;51.400;-2.342;2022-07-29T23:49:47;4.20;;;1.70;;
53890;SDS011;41337;51.400;-2.342;2022-07-29T23:54:49;2.92;;;1.20;;
53890;SDS011;41337;51.400;-2.342;2022-07-29T23:59:55;1.70;;;1.60;;
